Latest Weather Observations for Emerald

IDQ60801

Issued at 7:22 am EST Monday 28 September 2020 (issued every 10 minutes, with the page automatically refreshed every 10 minutes)

About weather observations | Map of weather stations | Latest weather observations for QLD | Other Formats
Station Details ID: 035264 Name: EMERALD AIRPORT Lat: -23.57 Lon: 148.18 Height: 189.4 m
Data from the previous 72 hours. | See also: Recent months at Emerald
Date/Time
EST
Temp
°C
App
Temp
°C
Dew
Point
°C
Rel
Hum
%
Delta-T
°C
Wind Press
QNH
hPa
Press
MSL
hPa
Rain since
9am
mm
Dir  Spd
km/h
Gust
km/h
Spd
kts
Gust
kts
28/07:00am 16.5 10.6 -2.5 27 7.8 SSE 19 24 10 13 1021.5 1020.8 0.0
28/06:30am 14.6 8.9 -3.7 28 7.2 SSE 17 20 9 11 1021.3 1020.6 0.0
28/06:00am 13.9 8.2 -3.4 30 6.8 SSE 17 22 9 12 1021.0 1020.3 0.0
28/05:30am 14.3 9.0 -3.5 29 7.0 SSE 15 20 8 11 1020.7 1020.0 0.0
28/05:00am 14.6 9.7 -3.7 28 7.1 S 13 19 7 10 1020.5 1019.8 0.0
28/04:30am 14.8 10.3 -3.5 28 7.2 SSE 11 15 6 8 1020.4 1019.7 0.0
28/04:00am 14.7 10.2 -3.6 28 7.2 SSE 11 15 6 8 1020.0 1019.3 0.0
28/03:30am 14.7 10.2 -3.1 29 7.1 SE 11 15 6 8 1019.9 1019.2 0.0
28/03:00am 14.6 10.1 -3.2 29 7.0 SSE 11 13 6 7 1019.9 1019.2 0.0
28/02:30am 15.2 10.7 -3.2 28 7.3 SE 11 13 6 7 1019.8 1019.1 0.0
28/02:00am 15.8 11.8 -2.6 28 7.5 SSE 9 11 5 6 1019.8 1019.1 0.0
28/01:30am 16.3 11.5 -2.7 27 7.7 SE 13 17 7 9 1019.9 1019.2 0.0
28/01:00am 17.1 11.9 -2.5 26 8.1 SE 15 17 8 9 1020.0 1019.3 0.0
28/12:30am 17.8 12.3 -1.9 26 8.3 SE 17 20 9 11 1020.0 1019.3 0.0
28/12:00am 17.9 11.8 -2.4 25 8.4 SE 20 24 11 13 1020.0 1019.3 0.0
 
Date/Time
EST
Temp
°C
App
Temp
°C
Dew
Point
°C
Rel
Hum
%
Delta-T
°C
Wind Press
QNH
hPa
Press
MSL
hPa
Rain since
9am
mm
Dir  Spd
km/h
Gust
km/h
Spd
kts
Gust
kts
27/11:30pm 18.0 12.0 -2.8 24 8.6 SE 19 24 10 13 1019.9 1019.2 0.0
27/11:00pm 18.5 12.9 -3.0 23 8.9 SE 17 22 9 12 1019.9 1019.2 0.0
27/10:30pm 19.3 13.4 -2.3 23 9.1 S 19 24 10 13 1019.4 1018.8 0.0
27/10:00pm 20.1 14.7 -1.7 23 9.4 SSE 17 19 9 10 1019.3 1018.7 0.0
27/09:30pm 20.5 15.4 -1.9 22 9.7 SSE 15 17 8 9 1019.1 1018.5 0.0
27/09:00pm 19.1 14.8 -1.4 25 8.8 SE 11 11 6 6 1019.1 1018.5 0.0
27/08:30pm 20.3 16.8 -1.5 23 9.5 ESE 7 11 4 6 1018.9 1018.3 0.0
27/08:00pm 21.4 16.7 -1.8 21 10.1 SE 13 13 7 7 1018.5 1017.8 0.0
27/07:30pm 23.1 18.4 -1.8 19 11.0 SE 13 17 7 9 1018.3 1017.6 0.0
27/07:00pm 23.3 18.6 -1.6 19 11.0 SE 13 13 7 7 1018.1 1017.4 0.0
27/06:30pm 25.3 21.8 -1.5 17 12.1 SSE 7 9 4 5 1017.9 1017.2 0.0
27/06:00pm 27.5 24.0 -1.4 15 13.3 SSW 7 9 4 5 1017.5 1016.8 0.0
27/05:30pm 29.0 24.6 -2.2 13 14.4 SW 11 15 6 8 1017.2 1016.5 0.0
27/05:00pm 29.4 24.7 -1.9 13 14.5 SW 13 22 7 12 1017.1 1016.4 0.0
27/04:30pm 29.6 24.9 -1.7 13 14.6 SW 13 32 7 17 1016.9 1016.2 0.0
27/04:00pm 29.9 24.5 -1.5 13 14.7 WSW 17 26 9 14 1016.6 1015.9 0.0
27/03:30pm 29.8 25.5 -1.5 13 14.7 W 11 26 6 14 1016.7 1016.0 0.0
27/03:00pm 28.9 24.9 -2.3 13 14.3 N 9 13 5 7 1016.8 1016.1 0.0
27/02:30pm 29.0 24.2 -2.2 13 14.4 SSW 13 19 7 10 1017.1 1016.4 0.0
27/02:00pm 28.8 24.4 -2.3 13 14.2 S 11 19 6 10 1017.5 1016.8 0.0
27/01:30pm 28.6 23.9 -1.5 14 14.0 E 13 24 7 13 1018.0 1017.3 0.0
27/01:00pm 28.2 23.6 -0.9 15 13.6 SE 13 20 7 11 1018.5 1017.8 0.0
27/12:30pm 26.6 22.2 -2.1 15 13.0 NE 11 19 6 10 1019.0 1018.4 0.0
27/12:00pm 27.0 21.7 -0.9 16 12.9 ESE 17 24 9 13 1019.8 1019.1 0.0
27/11:30am 26.1 22.2 -1.7 16 12.6 SE 9 17 5 9 1020.4 1019.7 0.0
27/11:00am 25.3 20.6 -1.5 17 12.1 SE 13 24 7 13 1021.0 1020.3 0.0
27/10:30am 23.7 19.3 -2.8 17 11.6 SE 11 26 6 14 1021.4 1020.7 0.0
27/10:00am 23.3 17.6 -3.9 16 11.5 ESE 17 24 9 13 1021.8 1021.1 0.0
27/09:30am 21.9 15.8 -4.2 17 10.9 SE 19 26 10 14 1022.0 1021.3 0.0
27/09:00am 21.4 14.7 -3.9 18 10.5 SE 22 30 12 16 1022.2 1021.5 0.0
27/08:30am 20.0 12.5 -5.0 18 10.1 SE 26 32 14 17 1022.1 1021.4 0.0
27/08:00am 18.6 11.1 -4.8 20 9.3 SE 26 35 14 19 1022.0 1021.3 0.0
27/07:30am 17.6 11.3 -4.3 22 8.7 SSE 20 28 11 15 1021.5 1020.8 0.0
27/07:00am 15.7 9.6 -4.2 25 7.8 SSE 19 28 10 15 1021.2 1020.5 0.0
27/06:30am 13.7 7.4 -4.0 29 6.8 SSE 20 28 11 15 1020.7 1020.0 0.0
27/06:00am 13.1 7.0 -4.1 30 6.6 SSE 19 24 10 13 1020.4 1019.7 0.0
27/05:30am 13.1 7.4 -4.1 30 6.6 SSE 17 22 9 12 1019.9 1019.2 0.0
27/05:00am 13.7 8.0 -4.0 29 6.8 SSE 17 22 9 12 1019.5 1018.9 0.0
27/04:30am 14.3 8.1 -4.4 27 7.2 SSE 19 26 10 14 1018.9 1018.3 0.0
27/04:00am 14.6 8.5 -4.2 27 7.3 SE 19 24 10 13 1018.6 1017.9 0.0
27/03:30am 14.7 9.3 -4.1 27 7.3 SE 15 20 8 11 1018.6 1017.9 0.0
27/03:00am 15.4 9.3 -4.0 26 7.6 SSE 19 26 10 14 1018.4 1017.7 0.0
27/02:30am 16.3 10.2 -3.7 25 8.0 SSE 19 24 10 13 1018.3 1017.6 0.0
27/02:00am 16.5 10.9 -3.0 26 7.9 SE 17 22 9 12 1018.5 1017.8 0.0
27/01:30am 16.8 10.8 -3.3 25 8.1 SSE 19 28 10 15 1018.4 1017.7 0.0
27/01:00am 17.4 11.2 -2.8 25 8.3 SSE 20 26 11 14 1018.5 1017.8 0.0
27/12:30am 18.3 12.1 -3.2 23 8.8 SSE 20 28 11 15 1018.6 1017.9 0.0
27/12:00am 19.1 12.9 -3.1 22 9.2 SSE 20 26 11 14 1018.7 1018.1 0.0
 
Date/Time
EST
Temp
°C
App
Temp
°C
Dew
Point
°C
Rel
Hum
%
Delta-T
°C
Wind Press
QNH
hPa
Press
MSL
hPa
Rain since
9am
mm
Dir  Spd
km/h
Gust
km/h
Spd
kts
Gust
kts
26/11:30pm 19.7 13.5 -3.2 21 9.6 SSE 20 28 11 15 1018.6 1017.9 0.0
26/11:00pm 19.2 13.7 -1.8 24 8.9 SSW 17 20 9 11 1018.6 1017.9 0.0
26/10:30pm 19.4 14.4 -1.1 25 8.9 SSW 15 19 8 10 1018.5 1017.8 0.0
26/10:00pm 20.5 15.9 -0.7 24 9.3 SSW 13 13 7 7 1018.4 1017.7 0.0
26/09:30pm 22.0 16.8 -0.1 23 10.0 SW 17 20 9 11 1018.2 1017.5 0.0
26/09:00pm 23.1 17.4 -0.4 21 10.6 SW 19 24 10 13 1017.9 1017.2 0.0
26/08:30pm 22.7 18.2 2.2 26 9.8 SW 15 17 8 9 1017.5 1016.8 0.0
26/08:00pm 22.8 19.1 2.3 26 9.8 SSW 11 13 6 7 1017.1 1016.4 0.0
26/07:30pm 23.8 19.3 2.0 24 10.4 SW 15 17 8 9 1016.6 1015.9 0.0
26/07:00pm 25.0 20.8 1.8 22 11.1 SW 13 15 7 8 1016.1 1015.4 0.0
26/06:30pm 26.2 21.1 0.8 19 12.1 SW 17 22 9 12 1015.6 1014.9 0.0
26/06:00pm 27.7 22.2 0.5 17 13.0 SW 19 24 10 13 1015.1 1014.4 0.0
26/05:30pm 29.3 22.4 0.0 15 14.0 SW 26 33 14 18 1014.5 1013.8 0.0
26/05:00pm 30.3 23.4 -0.1 14 14.6 SW 26 35 14 19 1014.0 1013.4 0.0
26/04:30pm 31.0 24.5 0.4 14 14.9 SW 24 32 13 17 1013.7 1013.0 0.0
26/04:00pm 31.5 24.5 -0.2 13 15.4 WSW 26 43 14 23 1013.4 1012.7 0.0
26/03:30pm 30.9 24.0 0.3 14 14.9 SW 26 39 14 21 1013.5 1012.8 0.0
26/03:08pm 31.5 24.2 -0.2 13 15.4 WSW 28 48 15 26 1013.4 1012.7 0.0
26/03:00pm 31.0 24.4 -0.6 13 15.2 W 24 32 13 17 1013.5 1012.8 0.0
26/02:30pm 31.5 25.8 0.8 14 15.1 WSW 20 35 11 19 1013.8 1013.1 0.0
26/02:00pm 30.3 23.7 -0.1 14 14.6 W 24 35 13 19 1014.3 1013.6 0.0
26/01:30pm 30.0 25.0 1.5 16 14.1 SSW 17 30 9 16 1014.8 1014.1 0.0
26/01:00pm 28.9 23.3 1.4 17 13.5 SSW 20 35 11 19 1015.4 1014.7 0.0
26/12:30pm 28.8 22.7 0.5 16 13.6 SSW 22 33 12 18 1016.0 1015.3 0.0
26/12:00pm 27.6 22.6 1.2 18 12.8 SW 17 28 9 15 1016.7 1016.0 0.0
26/11:30am 26.6 22.4 1.8 20 12.0 WSW 13 20 7 11 1017.1 1016.4 0.0
26/11:00am 25.7 21.6 2.4 22 11.3 SSE 13 22 7 12 1017.7 1017.0 0.0
26/10:30am 24.8 20.7 2.3 23 10.9 S 13 22 7 12 1018.1 1017.4 0.0
26/10:00am 24.9 20.1 2.4 23 10.9 S 17 24 9 13 1018.4 1017.7 0.0
26/09:30am 23.5 18.6 1.8 24 10.3 SE 17 26 9 14 1018.3 1017.6 0.0
26/09:00am 23.5 18.2 1.8 24 10.3 SE 19 24 10 13 1018.4 1017.7 0.0
26/08:30am 22.5 16.6 1.5 25 9.8 SSE 22 30 12 16 1018.1 1017.4 0.0
26/08:00am 21.4 15.3 0.6 25 9.5 SSE 22 30 12 16 1018.1 1017.4 0.0
26/07:30am 20.5 16.9 0.9 27 8.9 S 9 13 5 7 1018.0 1017.3 0.0
26/07:00am 18.3 13.9 0.4 30 7.9 SW 13 17 7 9 1017.7 1017.0 0.0
26/06:30am 16.3 11.8 -0.4 32 7.2 SW 13 19 7 10 1017.2 1016.5 0.0
26/06:00am 13.9 10.2 -0.2 38 5.9 WSW 9 11 5 6 1016.5 1015.8 0.0
26/05:30am 14.6 10.0 -0.7 35 6.4 WNW 13 15 7 8 1015.7 1015.0 0.0
26/05:00am 15.0 10.8 -1.1 33 6.7 NW 11 15 6 8 1015.2 1014.5 0.0
26/04:30am 15.4 12.0 -0.4 34 6.7 WNW 7 9 4 5 1014.7 1014.0 0.0
26/04:00am 14.4 12.0 -0.1 37 6.1 W 2 6 1 3 1014.0 1013.4 0.0
26/03:30am 14.7 10.2 -0.2 36 6.3 SW 13 13 7 7 1013.6 1012.9 0.0
26/03:00am 13.4 10.1 0.4 41 5.5 SSW 7 9 4 5 1013.4 1012.7 0.0
26/02:30am 13.7 11.7 0.0 39 5.8 CALM 0 0 0 0 1013.5 1012.8 0.0
26/02:00am 15.6 13.9 2.1 40 6.1 CALM 0 0 0 0 1013.7 1013.0 0.0
26/01:30am 16.8 14.3 -0.9 30 7.5 SW 2 7 1 4 1013.7 1013.0 0.0
26/01:00am 14.2 12.2 -0.3 37 6.1 CALM 0 0 0 0 1013.9 1013.2 0.0
26/12:30am 17.4 15.2 -1.8 27 8.1 CALM 0 0 0 0 1013.9 1013.2 0.0
26/12:00am 16.9 14.3 -1.7 28 7.8 W 2 7 1 4 1013.9 1013.2 0.0
 
Date/Time
EST
Temp
°C
App
Temp
°C
Dew
Point
°C
Rel
Hum
%
Delta-T
°C
Wind Press
QNH
hPa
Press
MSL
hPa
Rain since
9am
mm
Dir  Spd
km/h
Gust
km/h
Spd
kts
Gust
kts
25/11:30pm 18.7 15.3 -2.3 24 8.8 WSW 6 7 3 4 1014.0 1013.4 0.0
25/11:00pm 19.4 15.8 -3.5 21 9.5 WSW 6 7 3 4 1013.8 1013.1 0.0
25/10:30pm 21.0 17.3 -4.2 18 10.4 W 6 7 3 4 1013.7 1013.0 0.0
25/10:00pm 20.7 15.8 -3.7 19 10.2 WSW 13 15 7 8 1013.6 1012.9 0.0
25/09:30pm 22.4 17.1 -3.8 17 11.1 WSW 15 17 8 9 1013.4 1012.7 0.0
25/09:00pm 24.2 18.8 -4.9 14 12.2 W 15 19 8 10 1013.4 1012.7 0.0
25/08:30pm 24.9 19.9 -4.4 14 12.5 W 13 17 7 9 1013.0 1012.3 0.0
25/08:00pm 25.2 19.4 -4.2 14 12.6 WSW 17 20 9 11 1012.8 1012.1 0.0
25/07:30pm 26.5 21.8 -5.2 12 13.5 W 11 15 6 8 1012.4 1011.7 0.0
25/07:00pm 27.6 23.1 -6.7 10 14.4 W 9 13 5 7 1011.9 1011.2 0.0
25/06:30pm 28.7 22.6 -7.3 9 15.1 WSW 17 20 9 11 1011.4 1010.7 0.0
25/06:00pm 30.2 23.9 -6.1 9 15.8 W 19 24 10 13 1010.9 1010.2 0.0
25/05:30pm 31.5 24.9 -6.7 8 16.6 W 20 28 11 15 1010.4 1009.7 0.0
25/05:00pm 32.3 25.0 -6.1 8 17.0 WNW 24 35 13 19 1010.2 1009.5 0.0
25/04:30pm 32.8 24.8 -5.7 8 17.2 WNW 28 41 15 22 1009.9 1009.2 0.0
25/04:00pm 33.2 26.0 -5.5 8 17.4 W 24 33 13 18 1009.6 1008.9 0.0
25/03:30pm 33.6 26.2 -6.9 7 17.8 WNW 24 39 13 21 1009.6 1008.9 0.0
25/03:00pm 33.4 25.7 -7.0 7 17.8 WNW 26 39 14 21 1009.6 1008.9 0.0
25/02:30pm 33.5 26.5 -7.0 7 17.8 NW 22 39 12 21 1009.7 1009.0 0.0
25/02:00pm 33.3 25.9 -3.8 9 17.2 W 26 41 14 22 1010.2 1009.5 0.0
25/01:30pm 32.7 26.4 -4.3 9 16.9 WNW 20 30 11 16 1010.7 1010.0 0.0
25/01:00pm 32.4 26.2 -3.1 10 16.5 WNW 20 37 11 20 1011.3 1010.6 0.0
25/12:30pm 32.2 26.9 3.2 16 15.0 WNW 20 32 11 17 1011.8 1011.1 0.0
25/12:00pm 31.0 25.2 6.1 21 13.4 NW 26 46 14 25 1012.5 1011.8 0.0
25/11:30am 31.0 28.4 11.9 31 11.3 NNW 17 32 9 17 1012.9 1012.2 0.0
25/11:00am 28.8 27.1 15.7 45 8.1 N 19 32 10 17 1013.6 1012.9 0.0
25/10:30am 27.2 26.5 16.5 52 6.7 NNW 15 22 8 12 1014.4 1013.7 0.0
25/10:00am 26.5 25.0 15.2 49 6.9 NW 17 28 9 15 1015.0 1014.3 0.0
25/09:30am 25.0 23.7 15.9 57 5.6 WNW 17 24 9 13 1015.1 1014.4 0.0
25/09:00am 24.4 22.0 12.7 48 6.8 NNW 17 20 9 11 1015.3 1014.6 0.0
25/08:30am 22.6 21.8 12.8 54 5.7 W 9 13 5 7 1015.2 1014.5 0.0
25/08:00am 21.5 19.7 9.4 46 6.5 WNW 9 13 5 7 1015.4 1014.7 0.0
25/07:30am 20.1 20.0 15.9 77 2.5 NW 11 13 6 7 1015.0 1014.3 0.0

Other formats

Comma delimited format used in spreadsheet applications
http://www.bom.gov.au/fwo/IDQ60801/IDQ60801.94363.axf

JavaScript Object Notation format (JSON) in row-major order
http://www.bom.gov.au/fwo/IDQ60801/IDQ60801.94363.json

Data quality

Most of these data are generated automatically and are frequently updated. Quality checks on data are not normally performed. It is possible for incorrect values to appear. Refer to information at About Latest Weather Observations and please check the disclaimer before using these data.